sensor_id;sensor_type;location;lat;lon;timestamp;P1;durP1;ratioP1;P2;durP2;ratioP2
35907;SDS011;22003;50.320;8.054;2022-12-26T00:00:31;5.43;;;2.63;;
35907;SDS011;22003;50.320;8.054;2022-12-26T00:15:55;2.38;;;1.98;;
35907;SDS011;22003;50.320;8.054;2022-12-26T00:18:48;5.65;;;2.10;;
35907;SDS011;22003;50.320;8.054;2022-12-26T00:21:43;5.00;;;2.17;;
35907;SDS011;22003;50.320;8.054;2022-12-26T05:01:09;10.38;;;3.30;;
35907;SDS011;22003;50.320;8.054;2022-12-26T05:03:53;5.90;;;2.00;;
35907;SDS011;22003;50.320;8.054;2022-12-26T05:06:38;6.82;;;2.60;;
35907;SDS011;22003;50.320;8.054;2022-12-26T05:09:21;7.13;;;2.47;;
35907;SDS011;22003;50.320;8.054;2022-12-26T05:12:03;5.97;;;2.70;;
35907;SDS011;22003;50.320;8.054;2022-12-26T05:14:29;3.17;;;1.80;;
35907;SDS011;22003;50.320;8.054;2022-12-26T05:16:56;8.40;;;2.03;;
35907;SDS011;22003;50.320;8.054;2022-12-26T05:19:41;9.98;;;2.30;;
35907;SDS011;22003;50.320;8.054;2022-12-26T05:22:25;7.57;;;2.60;;
35907;SDS011;22003;50.320;8.054;2022-12-26T05:25:16;5.15;;;1.85;;
35907;SDS011;22003;50.320;8.054;2022-12-26T05:28:03;2.90;;;1.70;;
35907;SDS011;22003;50.320;8.054;2022-12-26T05:30:47;4.75;;;1.60;;
35907;SDS011;22003;50.320;8.054;2022-12-26T05:33:12;3.55;;;1.70;;
35907;SDS011;22003;50.320;8.054;2022-12-26T05:35:56;4.97;;;1.67;;
35907;SDS011;22003;50.320;8.054;2022-12-26T05:38:22;5.93;;;2.20;;
35907;SDS011;22003;50.320;8.054;2022-12-26T05:40:47;4.93;;;2.08;;
35907;SDS011;22003;50.320;8.054;2022-12-26T05:43:12;6.85;;;1.90;;
35907;SDS011;22003;50.320;8.054;2022-12-26T05:45:37;3.72;;;1.67;;
35907;SDS011;22003;50.320;8.054;2022-12-26T05:48:03;5.28;;;1.48;;
35907;SDS011;22003;50.320;8.054;2022-12-26T05:50:28;6.10;;;1.80;;
35907;SDS011;22003;50.320;8.054;2022-12-26T05:52:57;4.32;;;1.80;;
35907;SDS011;22003;50.320;8.054;2022-12-26T05:55:23;4.32;;;1.70;;
35907;SDS011;22003;50.320;8.054;2022-12-26T05:57:49;5.47;;;2.15;;
35907;SDS011;22003;50.320;8.054;2022-12-26T06:00:14;4.03;;;1.40;;
35907;SDS011;22003;50.320;8.054;2022-12-26T06:02:40;5.45;;;1.48;;
35907;SDS011;22003;50.320;8.054;2022-12-26T06:05:05;4.03;;;1.58;;
35907;SDS011;22003;50.320;8.054;2022-12-26T06:07:31;3.00;;;1.58;;
35907;SDS011;22003;50.320;8.054;2022-12-26T06:09:56;2.75;;;1.40;;
35907;SDS011;22003;50.320;8.054;2022-12-26T06:12:21;6.82;;;2.20;;
35907;SDS011;22003;50.320;8.054;2022-12-26T06:14:46;3.08;;;2.00;;
35907;SDS011;22003;50.320;8.054;2022-12-26T06:17:12;12.32;;;4.05;;
35907;SDS011;22003;50.320;8.054;2022-12-26T06:19:38;5.40;;;2.67;;
35907;SDS011;22003;50.320;8.054;2022-12-26T06:22:03;3.65;;;1.80;;
35907;SDS011;22003;50.320;8.054;2022-12-26T06:24:29;4.38;;;2.33;;
35907;SDS011;22003;50.320;8.054;2022-12-26T06:26:54;6.32;;;2.35;;
35907;SDS011;22003;50.320;8.054;2022-12-26T06:29:19;7.53;;;2.80;;
35907;SDS011;22003;50.320;8.054;2022-12-26T06:31:44;8.98;;;3.35;;
35907;SDS011;22003;50.320;8.054;2022-12-26T06:34:10;20.10;;;5.35;;
35907;SDS011;22003;50.320;8.054;2022-12-26T06:36:36;12.60;;;3.83;;
35907;SDS011;22003;50.320;8.054;2022-12-26T06:39:01;21.77;;;6.97;;
35907;SDS011;22003;50.320;8.054;2022-12-26T06:41:27;5.47;;;1.95;;
35907;SDS011;22003;50.320;8.054;2022-12-26T06:43:52;14.70;;;4.55;;
35907;SDS011;22003;50.320;8.054;2022-12-26T06:46:20;6.15;;;3.05;;
35907;SDS011;22003;50.320;8.054;2022-12-26T06:48:47;5.68;;;2.00;;
35907;SDS011;22003;50.320;8.054;2022-12-26T06:51:14;3.40;;;1.92;;
35907;SDS011;22003;50.320;8.054;2022-12-26T06:53:44;2.15;;;1.10;;
35907;SDS011;22003;50.320;8.054;2022-12-26T06:56:11;4.13;;;1.85;;
35907;SDS011;22003;50.320;8.054;2022-12-26T06:58:39;5.00;;;1.52;;
35907;SDS011;22003;50.320;8.054;2022-12-26T07:01:06;2.78;;;1.25;;
35907;SDS011;22003;50.320;8.054;2022-12-26T07:03:33;2.70;;;1.42;;
35907;SDS011;22003;50.320;8.054;2022-12-26T07:08:42;4.03;;;2.08;;
35907;SDS011;22003;50.320;8.054;2022-12-26T07:11:18;2.63;;;1.25;;
35907;SDS011;22003;50.320;8.054;2022-12-26T07:13:45;7.38;;;1.83;;
35907;SDS011;22003;50.320;8.054;2022-12-26T07:16:10;2.33;;;1.15;;
35907;SDS011;22003;50.320;8.054;2022-12-26T07:18:36;2.30;;;1.20;;
35907;SDS011;22003;50.320;8.054;2022-12-26T07:21:05;2.30;;;1.02;;
35907;SDS011;22003;50.320;8.054;2022-12-26T07:23:31;3.08;;;1.30;;
35907;SDS011;22003;50.320;8.054;2022-12-26T07:25:57;1.25;;;0.88;;
35907;SDS011;22003;50.320;8.054;2022-12-26T07:28:22;2.60;;;1.38;;
35907;SDS011;22003;50.320;8.054;2022-12-26T07:30:47;3.17;;;1.50;;
35907;SDS011;22003;50.320;8.054;2022-12-26T07:33:14;0.98;;;0.70;;
35907;SDS011;22003;50.320;8.054;2022-12-26T07:35:39;4.10;;;1.48;;
35907;SDS011;22003;50.320;8.054;2022-12-26T07:38:04;5.65;;;0.82;;
35907;SDS011;22003;50.320;8.054;2022-12-26T07:40:30;2.78;;;1.25;;
35907;SDS011;22003;50.320;8.054;2022-12-26T07:42:55;2.13;;;0.77;;
35907;SDS011;22003;50.320;8.054;2022-12-26T07:45:20;1.23;;;0.88;;
35907;SDS011;22003;50.320;8.054;2022-12-26T07:47:45;2.20;;;0.90;;
35907;SDS011;22003;50.320;8.054;2022-12-26T07:50:11;0.70;;;0.60;;
35907;SDS011;22003;50.320;8.054;2022-12-26T07:52:36;1.05;;;0.60;;
35907;SDS011;22003;50.320;8.054;2022-12-26T07:55:01;1.83;;;1.00;;
35907;SDS011;22003;50.320;8.054;2022-12-26T07:57:28;0.73;;;0.70;;
35907;SDS011;22003;50.320;8.054;2022-12-26T07:59:53;2.42;;;0.90;;
35907;SDS011;22003;50.320;8.054;2022-12-26T08:02:18;0.80;;;0.60;;
35907;SDS011;22003;50.320;8.054;2022-12-26T08:04:44;1.30;;;0.60;;
35907;SDS011;22003;50.320;8.054;2022-12-26T08:07:09;1.75;;;0.70;;
35907;SDS011;22003;50.320;8.054;2022-12-26T08:09:34;1.05;;;0.52;;
35907;SDS011;22003;50.320;8.054;2022-12-26T08:12:00;1.80;;;0.50;;
35907;SDS011;22003;50.320;8.054;2022-12-26T08:14:25;2.97;;;0.65;;
35907;SDS011;22003;50.320;8.054;2022-12-26T08:16:50;1.75;;;0.80;;
35907;SDS011;22003;50.320;8.054;2022-12-26T08:19:15;3.17;;;1.17;;
35907;SDS011;22003;50.320;8.054;2022-12-26T08:21:41;1.30;;;0.80;;
35907;SDS011;22003;50.320;8.054;2022-12-26T08:24:06;2.33;;;0.82;;
35907;SDS011;22003;50.320;8.054;2022-12-26T08:26:31;2.42;;;1.23;;
35907;SDS011;22003;50.320;8.054;2022-12-26T08:28:56;4.68;;;0.90;;
35907;SDS011;22003;50.320;8.054;2022-12-26T08:31:22;1.35;;;0.98;;
35907;SDS011;22003;50.320;8.054;2022-12-26T08:33:47;2.47;;;0.90;;
35907;SDS011;22003;50.320;8.054;2022-12-26T08:36:13;3.10;;;1.80;;
35907;SDS011;22003;50.320;8.054;2022-12-26T08:38:42;5.32;;;2.65;;
35907;SDS011;22003;50.320;8.054;2022-12-26T08:41:07;7.45;;;2.40;;
35907;SDS011;22003;50.320;8.054;2022-12-26T08:43:33;5.10;;;2.35;;
35907;SDS011;22003;50.320;8.054;2022-12-26T08:48:24;5.95;;;3.85;;
35907;SDS011;22003;50.320;8.054;2022-12-26T08:51:00;7.85;;;3.85;;
35907;SDS011;22003;50.320;8.054;2022-12-26T08:53:27;3.55;;;2.30;;
35907;SDS011;22003;50.320;8.054;2022-12-26T08:55:54;7.13;;;3.03;;
35907;SDS011;22003;50.320;8.054;2022-12-26T08:58:20;5.32;;;2.63;;
35907;SDS011;22003;50.320;8.054;2022-12-26T09:00:45;3.88;;;1.95;;
35907;SDS011;22003;50.320;8.054;2022-12-26T09:03:10;6.53;;;2.38;;
35907;SDS011;22003;50.320;8.054;2022-12-26T09:05:36;5.32;;;2.10;;
35907;SDS011;22003;50.320;8.054;2022-12-26T09:08:01;6.95;;;3.58;;
35907;SDS011;22003;50.320;8.054;2022-12-26T09:10:26;3.42;;;1.90;;
35907;SDS011;22003;50.320;8.054;2022-12-26T09:12:51;2.63;;;1.50;;
35907;SDS011;22003;50.320;8.054;2022-12-26T09:15:17;1.75;;;0.90;;
35907;SDS011;22003;50.320;8.054;2022-12-26T09:17:42;1.58;;;1.17;;
35907;SDS011;22003;50.320;8.054;2022-12-26T09:20:07;4.32;;;1.55;;
35907;SDS011;22003;50.320;8.054;2022-12-26T09:22:33;2.72;;;1.40;;
35907;SDS011;22003;50.320;8.054;2022-12-26T09:25:17;3.70;;;1.90;;
35907;SDS011;22003;50.320;8.054;2022-12-26T09:27:43;2.40;;;1.17;;
35907;SDS011;22003;50.320;8.054;2022-12-26T09:30:09;2.38;;;1.38;;
35907;SDS011;22003;50.320;8.054;2022-12-26T09:32:35;6.20;;;1.65;;
35907;SDS011;22003;50.320;8.054;2022-12-26T09:35:00;5.40;;;2.28;;
35907;SDS011;22003;50.320;8.054;2022-12-26T09:37:26;4.88;;;2.35;;
35907;SDS011;22003;50.320;8.054;2022-12-26T09:39:51;7.43;;;2.50;;
35907;SDS011;22003;50.320;8.054;2022-12-26T09:42:32;3.60;;;1.65;;
35907;SDS011;22003;50.320;8.054;2022-12-26T09:47:43;2.33;;;1.20;;
35907;SDS011;22003;50.320;8.054;2022-12-26T09:50:26;7.10;;;1.33;;
35907;SDS011;22003;50.320;8.054;2022-12-26T09:52:57;1.90;;;1.08;;
35907;SDS011;22003;50.320;8.054;2022-12-26T09:58:29;1.65;;;1.17;;
35907;SDS011;22003;50.320;8.054;2022-12-26T10:03:37;1.05;;;0.85;;
35907;SDS011;22003;50.320;8.054;2022-12-26T10:08:39;1.02;;;0.80;;
35907;SDS011;22003;50.320;8.054;2022-12-26T10:14:19;0.50;;;0.50;;
35907;SDS011;22003;50.320;8.054;2022-12-26T10:16:52;4.40;;;0.80;;
35907;SDS011;22003;50.320;8.054;2022-12-26T10:25:12;2.63;;;1.08;;
35907;SDS011;22003;50.320;8.054;2022-12-26T10:27:42;1.70;;;0.90;;
35907;SDS011;22003;50.320;8.054;2022-12-26T10:30:17;2.58;;;0.80;;
35907;SDS011;22003;50.320;8.054;2022-12-26T10:32:48;0.98;;;0.80;;
35907;SDS011;22003;50.320;8.054;2022-12-26T10:37:52;3.00;;;1.30;;
35907;SDS011;22003;50.320;8.054;2022-12-26T10:40:24;3.33;;;1.45;;
35907;SDS011;22003;50.320;8.054;2022-12-26T10:43:29;5.65;;;2.45;;
35907;SDS011;22003;50.320;8.054;2022-12-26T10:48:53;18.40;;;5.50;;
35907;SDS011;22003;50.320;8.054;2022-12-26T10:51:18;3.35;;;1.50;;
35907;SDS011;22003;50.320;8.054;2022-12-26T10:53:47;3.42;;;1.80;;
35907;SDS011;22003;50.320;8.054;2022-12-26T10:56:15;11.18;;;3.75;;
35907;SDS011;22003;50.320;8.054;2022-12-26T10:58:41;8.00;;;2.47;;
35907;SDS011;22003;50.320;8.054;2022-12-26T11:04:08;1.95;;;0.80;;
35907;SDS011;22003;50.320;8.054;2022-12-26T11:06:40;3.50;;;1.60;;
35907;SDS011;22003;50.320;8.054;2022-12-26T11:09:06;2.22;;;0.82;;
35907;SDS011;22003;50.320;8.054;2022-12-26T11:11:48;5.22;;;1.60;;
35907;SDS011;22003;50.320;8.054;2022-12-26T11:14:25;2.05;;;1.20;;
35907;SDS011;22003;50.320;8.054;2022-12-26T11:16:51;3.92;;;2.28;;
35907;SDS011;22003;50.320;8.054;2022-12-26T11:19:33;1.50;;;0.80;;
35907;SDS011;22003;50.320;8.054;2022-12-26T11:27:52;1.42;;;0.70;;
35907;SDS011;22003;50.320;8.054;2022-12-26T11:30:24;2.30;;;1.02;;
35907;SDS011;22003;50.320;8.054;2022-12-26T11:35:49;2.83;;;0.90;;
35907;SDS011;22003;50.320;8.054;2022-12-26T11:38:18;0.98;;;0.63;;
35907;SDS011;22003;50.320;8.054;2022-12-26T11:41:00;2.08;;;0.80;;
35907;SDS011;22003;50.320;8.054;2022-12-26T11:43:48;3.40;;;1.10;;
35907;SDS011;22003;50.320;8.054;2022-12-26T11:46:15;1.90;;;1.17;;
35907;SDS011;22003;50.320;8.054;2022-12-26T11:48:41;3.38;;;1.65;;
35907;SDS011;22003;50.320;8.054;2022-12-26T11:51:14;2.95;;;1.20;;
35907;SDS011;22003;50.320;8.054;2022-12-26T11:53:40;2.45;;;1.17;;
35907;SDS011;22003;50.320;8.054;2022-12-26T11:56:05;2.63;;;1.30;;
35907;SDS011;22003;50.320;8.054;2022-12-26T11:58:33;3.50;;;1.30;;
35907;SDS011;22003;50.320;8.054;2022-12-26T12:06:11;3.90;;;2.03;;
35907;SDS011;22003;50.320;8.054;2022-12-26T12:11:48;4.45;;;2.30;;
35907;SDS011;22003;50.320;8.054;2022-12-26T12:14:37;3.38;;;1.95;;
35907;SDS011;22003;50.320;8.054;2022-12-26T12:20:08;4.15;;;2.30;;
35907;SDS011;22003;50.320;8.054;2022-12-26T12:22:48;4.70;;;2.47;;
35907;SDS011;22003;50.320;8.054;2022-12-26T12:26:28;7.55;;;2.05;;
35907;SDS011;22003;50.320;8.054;2022-12-26T12:36:53;4.72;;;2.67;;
35907;SDS011;22003;50.320;8.054;2022-12-26T12:39:51;4.13;;;1.25;;
35907;SDS011;22003;50.320;8.054;2022-12-26T12:47:54;5.32;;;2.08;;
35907;SDS011;22003;50.320;8.054;2022-12-26T12:50:35;8.95;;;3.58;;
35907;SDS011;22003;50.320;8.054;2022-12-26T12:53:12;4.60;;;2.15;;
35907;SDS011;22003;50.320;8.054;2022-12-26T12:56:01;1.08;;;0.80;;
35907;SDS011;22003;50.320;8.054;2022-12-26T13:01:08;6.53;;;2.13;;
35907;SDS011;22003;50.320;8.054;2022-12-26T13:06:13;1.77;;;1.00;;
35907;SDS011;22003;50.320;8.054;2022-12-26T13:08:49;1.30;;;0.80;;
35907;SDS011;22003;50.320;8.054;2022-12-26T13:11:29;4.40;;;1.63;;
35907;SDS011;22003;50.320;8.054;2022-12-26T13:16:32;7.03;;;2.28;;
35907;SDS011;22003;50.320;8.054;2022-12-26T13:19:08;2.88;;;1.60;;
35907;SDS011;22003;50.320;8.054;2022-12-26T13:21:40;2.60;;;1.65;;
35907;SDS011;22003;50.320;8.054;2022-12-26T13:29:34;2.15;;;1.40;;
35907;SDS011;22003;50.320;8.054;2022-12-26T13:32:03;2.58;;;0.70;;
35907;SDS011;22003;50.320;8.054;2022-12-26T13:34:38;3.92;;;1.75;;
35907;SDS011;22003;50.320;8.054;2022-12-26T13:37:03;2.45;;;1.15;;
35907;SDS011;22003;50.320;8.054;2022-12-26T13:39:30;3.13;;;1.33;;
35907;SDS011;22003;50.320;8.054;2022-12-26T13:42:00;1.75;;;0.90;;
35907;SDS011;22003;50.320;8.054;2022-12-26T13:50:48;1.95;;;0.90;;
35907;SDS011;22003;50.320;8.054;2022-12-26T13:53:25;4.65;;;1.35;;
35907;SDS011;22003;50.320;8.054;2022-12-26T13:55:55;3.90;;;2.25;;
35907;SDS011;22003;50.320;8.054;2022-12-26T13:58:33;5.20;;;2.17;;
35907;SDS011;22003;50.320;8.054;2022-12-26T14:07:13;1.30;;;1.20;;
35907;SDS011;22003;50.320;8.054;2022-12-26T14:18:53;2.13;;;1.20;;
35907;SDS011;22003;50.320;8.054;2022-12-26T14:24:02;2.42;;;1.40;;
35907;SDS011;22003;50.320;8.054;2022-12-26T14:26:56;2.92;;;1.10;;
35907;SDS011;22003;50.320;8.054;2022-12-26T14:29:54;1.75;;;0.95;;
35907;SDS011;22003;50.320;8.054;2022-12-26T14:32:38;2.13;;;1.17;;
35907;SDS011;22003;50.320;8.054;2022-12-26T14:41:12;4.18;;;1.38;;
35907;SDS011;22003;50.320;8.054;2022-12-26T14:47:02;1.23;;;0.82;;
35907;SDS011;22003;50.320;8.054;2022-12-26T14:54:53;3.00;;;1.50;;
35907;SDS011;22003;50.320;8.054;2022-12-26T14:57:39;3.28;;;1.73;;
35907;SDS011;22003;50.320;8.054;2022-12-26T15:02:45;1.20;;;0.93;;
35907;SDS011;22003;50.320;8.054;2022-12-26T15:05:17;0.60;;;0.47;;
35907;SDS011;22003;50.320;8.054;2022-12-26T15:16:18;5.75;;;1.25;;
35907;SDS011;22003;50.320;8.054;2022-12-26T15:27:37;4.13;;;1.30;;
35907;SDS011;22003;50.320;8.054;2022-12-26T15:33:38;2.53;;;1.35;;
35907;SDS011;22003;50.320;8.054;2022-12-26T15:41:47;4.65;;;1.70;;
35907;SDS011;22003;50.320;8.054;2022-12-26T15:46:56;3.95;;;1.80;;
35907;SDS011;22003;50.320;8.054;2022-12-26T15:49:44;5.65;;;2.20;;
35907;SDS011;22003;50.320;8.054;2022-12-26T15:55:31;6.88;;;2.35;;
35907;SDS011;22003;50.320;8.054;2022-12-26T15:58:01;4.20;;;1.30;;
35907;SDS011;22003;50.320;8.054;2022-12-26T16:03:19;5.88;;;1.33;;
35907;SDS011;22003;50.320;8.054;2022-12-26T16:14:12;1.10;;;0.60;;
35907;SDS011;22003;50.320;8.054;2022-12-26T16:16:52;1.60;;;0.30;;
35907;SDS011;22003;50.320;8.054;2022-12-26T16:19:19;2.50;;;0.30;;
35907;SDS011;22003;50.320;8.054;2022-12-26T16:21:48;1.95;;;0.40;;
35907;SDS011;22003;50.320;8.054;2022-12-26T16:24:36;0.85;;;0.30;;
35907;SDS011;22003;50.320;8.054;2022-12-26T16:27:04;1.38;;;0.90;;
35907;SDS011;22003;50.320;8.054;2022-12-26T16:29:33;0.22;;;0.20;;
35907;SDS011;22003;50.320;8.054;2022-12-26T16:32:10;1.30;;;0.80;;
35907;SDS011;22003;50.320;8.054;2022-12-26T16:34:40;2.08;;;0.95;;
35907;SDS011;22003;50.320;8.054;2022-12-26T16:37:07;4.45;;;2.45;;
35907;SDS011;22003;50.320;8.054;2022-12-26T16:39:39;1.45;;;0.70;;
35907;SDS011;22003;50.320;8.054;2022-12-26T16:42:06;2.13;;;1.05;;
35907;SDS011;22003;50.320;8.054;2022-12-26T16:44:51;3.00;;;1.15;;
35907;SDS011;22003;50.320;8.054;2022-12-26T16:47:19;3.10;;;2.15;;
35907;SDS011;22003;50.320;8.054;2022-12-26T16:49:45;1.23;;;1.13;;
35907;SDS011;22003;50.320;8.054;2022-12-26T16:57:46;4.07;;;1.73;;
35907;SDS011;22003;50.320;8.054;2022-12-26T17:00:18;1.95;;;0.90;;
35907;SDS011;22003;50.320;8.054;2022-12-26T17:02:46;1.00;;;0.50;;
35907;SDS011;22003;50.320;8.054;2022-12-26T17:05:23;1.05;;;0.40;;
35907;SDS011;22003;50.320;8.054;2022-12-26T17:07:53;0.95;;;0.38;;
35907;SDS011;22003;50.320;8.054;2022-12-26T17:10:22;0.85;;;0.30;;
35907;SDS011;22003;50.320;8.054;2022-12-26T17:12:51;2.58;;;0.30;;
35907;SDS011;22003;50.320;8.054;2022-12-26T17:15:24;2.08;;;0.40;;
35907;SDS011;22003;50.320;8.054;2022-12-26T17:17:52;3.05;;;0.45;;
35907;SDS011;22003;50.320;8.054;2022-12-26T17:22:46;1.42;;;0.40;;
35907;SDS011;22003;50.320;8.054;2022-12-26T17:27:42;2.13;;;0.55;;
35907;SDS011;22003;50.320;8.054;2022-12-26T17:30:19;1.03;;;0.60;;
35907;SDS011;22003;50.320;8.054;2022-12-26T17:32:54;1.80;;;0.50;;
35907;SDS011;22003;50.320;8.054;2022-12-26T17:35:26;2.88;;;0.38;;
35907;SDS011;22003;50.320;8.054;2022-12-26T17:38:05;0.25;;;0.20;;
35907;SDS011;22003;50.320;8.054;2022-12-26T17:40:40;1.05;;;0.40;;
35907;SDS011;22003;50.320;8.054;2022-12-26T17:43:07;0.80;;;0.40;;
35907;SDS011;22003;50.320;8.054;2022-12-26T17:45:46;0.85;;;0.52;;
35907;SDS011;22003;50.320;8.054;2022-12-26T17:48:11;0.98;;;0.52;;
35907;SDS011;22003;50.320;8.054;2022-12-26T17:50:37;1.45;;;0.80;;
35907;SDS011;22003;50.320;8.054;2022-12-26T17:53:05;2.50;;;0.90;;
35907;SDS011;22003;50.320;8.054;2022-12-26T17:55:36;6.57;;;0.90;;
35907;SDS011;22003;50.320;8.054;2022-12-26T17:58:02;1.55;;;0.90;;
35907;SDS011;22003;50.320;8.054;2022-12-26T18:00:28;1.52;;;0.95;;
35907;SDS011;22003;50.320;8.054;2022-12-26T18:02:53;1.02;;;0.88;;
35907;SDS011;22003;50.320;8.054;2022-12-26T18:05:19;3.00;;;1.00;;
35907;SDS011;22003;50.320;8.054;2022-12-26T18:07:45;4.13;;;1.65;;
35907;SDS011;22003;50.320;8.054;2022-12-26T18:10:17;4.78;;;1.10;;
35907;SDS011;22003;50.320;8.054;2022-12-26T18:12:44;3.15;;;1.20;;
35907;SDS011;22003;50.320;8.054;2022-12-26T18:15:09;1.35;;;1.08;;
35907;SDS011;22003;50.320;8.054;2022-12-26T18:17:35;7.60;;;1.17;;
35907;SDS011;22003;50.320;8.054;2022-12-26T18:20:01;2.83;;;1.30;;
35907;SDS011;22003;50.320;8.054;2022-12-26T18:22:27;1.88;;;1.20;;
35907;SDS011;22003;50.320;8.054;2022-12-26T18:24:53;3.63;;;1.27;;
35907;SDS011;22003;50.320;8.054;2022-12-26T18:27:29;1.10;;;0.95;;
35907;SDS011;22003;50.320;8.054;2022-12-26T18:29:56;2.67;;;1.08;;
35907;SDS011;22003;50.320;8.054;2022-12-26T18:32:25;5.15;;;0.98;;
35907;SDS011;22003;50.320;8.054;2022-12-26T18:34:52;4.15;;;1.10;;
35907;SDS011;22003;50.320;8.054;2022-12-26T18:37:18;2.58;;;1.15;;
35907;SDS011;22003;50.320;8.054;2022-12-26T18:39:45;3.22;;;1.00;;
35907;SDS011;22003;50.320;8.054;2022-12-26T18:42:11;2.25;;;0.95;;
35907;SDS011;22003;50.320;8.054;2022-12-26T18:44:37;2.35;;;1.02;;
35907;SDS011;22003;50.320;8.054;2022-12-26T18:47:04;3.92;;;0.93;;
35907;SDS011;22003;50.320;8.054;2022-12-26T18:49:29;2.00;;;1.10;;
35907;SDS011;22003;50.320;8.054;2022-12-26T18:51:54;4.32;;;1.10;;
35907;SDS011;22003;50.320;8.054;2022-12-26T18:54:19;5.15;;;1.90;;
35907;SDS011;22003;50.320;8.054;2022-12-26T18:56:45;3.95;;;1.10;;
35907;SDS011;22003;50.320;8.054;2022-12-26T18:59:10;6.22;;;1.02;;
35907;SDS011;22003;50.320;8.054;2022-12-26T19:01:36;3.10;;;1.10;;
35907;SDS011;22003;50.320;8.054;2022-12-26T19:04:01;2.17;;;1.05;;
35907;SDS011;22003;50.320;8.054;2022-12-26T19:06:27;2.53;;;1.25;;
35907;SDS011;22003;50.320;8.054;2022-12-26T19:08:54;2.13;;;1.30;;
35907;SDS011;22003;50.320;8.054;2022-12-26T19:11:19;2.97;;;0.93;;
35907;SDS011;22003;50.320;8.054;2022-12-26T19:13:45;3.95;;;1.10;;
35907;SDS011;22003;50.320;8.054;2022-12-26T19:16:10;2.17;;;1.45;;
35907;SDS011;22003;50.320;8.054;2022-12-26T19:18:36;11.07;;;1.73;;
35907;SDS011;22003;50.320;8.054;2022-12-26T19:21:01;4.43;;;1.60;;
35907;SDS011;22003;50.320;8.054;2022-12-26T19:23:26;1.33;;;0.80;;
35907;SDS011;22003;50.320;8.054;2022-12-26T19:25:52;4.80;;;1.20;;
35907;SDS011;22003;50.320;8.054;2022-12-26T19:28:17;7.85;;;1.48;;
35907;SDS011;22003;50.320;8.054;2022-12-26T19:30:42;1.52;;;0.90;;
35907;SDS011;22003;50.320;8.054;2022-12-26T19:33:07;2.55;;;1.20;;
35907;SDS011;22003;50.320;8.054;2022-12-26T19:35:33;3.22;;;1.30;;
35907;SDS011;22003;50.320;8.054;2022-12-26T19:37:58;3.88;;;1.38;;
35907;SDS011;22003;50.320;8.054;2022-12-26T19:40:23;5.32;;;1.85;;
35907;SDS011;22003;50.320;8.054;2022-12-26T19:42:48;2.63;;;1.63;;
35907;SDS011;22003;50.320;8.054;2022-12-26T19:45:14;4.45;;;1.30;;
35907;SDS011;22003;50.320;8.054;2022-12-26T19:47:39;2.25;;;1.33;;
35907;SDS011;22003;50.320;8.054;2022-12-26T19:50:05;5.35;;;1.27;;
35907;SDS011;22003;50.320;8.054;2022-12-26T19:52:31;5.68;;;1.52;;
35907;SDS011;22003;50.320;8.054;2022-12-26T19:54:58;3.38;;;1.48;;
35907;SDS011;22003;50.320;8.054;2022-12-26T19:57:23;4.95;;;1.50;;
35907;SDS011;22003;50.320;8.054;2022-12-26T19:59:49;1.58;;;1.20;;
35907;SDS011;22003;50.320;8.054;2022-12-26T20:02:14;4.22;;;1.35;;
35907;SDS011;22003;50.320;8.054;2022-12-26T20:04:39;1.90;;;1.38;;
35907;SDS011;22003;50.320;8.054;2022-12-26T20:07:05;4.65;;;1.10;;
35907;SDS011;22003;50.320;8.054;2022-12-26T20:09:30;6.18;;;1.85;;
35907;SDS011;22003;50.320;8.054;2022-12-26T20:11:55;4.05;;;1.38;;
35907;SDS011;22003;50.320;8.054;2022-12-26T20:14:22;4.25;;;2.20;;
35907;SDS011;22003;50.320;8.054;2022-12-26T20:16:48;7.60;;;2.75;;
35907;SDS011;22003;50.320;8.054;2022-12-26T20:19:19;8.70;;;3.22;;
35907;SDS011;22003;50.320;8.054;2022-12-26T20:21:46;6.47;;;3.35;;
35907;SDS011;22003;50.320;8.054;2022-12-26T20:24:12;7.57;;;2.65;;
35907;SDS011;22003;50.320;8.054;2022-12-26T20:26:38;5.97;;;2.80;;
35907;SDS011;22003;50.320;8.054;2022-12-26T20:29:04;6.05;;;2.67;;
35907;SDS011;22003;50.320;8.054;2022-12-26T20:31:30;5.90;;;2.70;;
35907;SDS011;22003;50.320;8.054;2022-12-26T20:33:57;6.57;;;2.53;;
35907;SDS011;22003;50.320;8.054;2022-12-26T20:36:32;7.72;;;2.85;;
35907;SDS011;22003;50.320;8.054;2022-12-26T20:39:01;8.40;;;3.03;;
35907;SDS011;22003;50.320;8.054;2022-12-26T20:41:31;9.10;;;3.08;;
35907;SDS011;22003;50.320;8.054;2022-12-26T20:43:57;5.70;;;2.95;;
35907;SDS011;22003;50.320;8.054;2022-12-26T20:46:29;7.13;;;2.88;;
35907;SDS011;22003;50.320;8.054;2022-12-26T20:48:55;7.38;;;3.25;;
35907;SDS011;22003;50.320;8.054;2022-12-26T20:51:22;12.20;;;3.70;;
35907;SDS011;22003;50.320;8.054;2022-12-26T20:53:49;11.75;;;3.35;;
35907;SDS011;22003;50.320;8.054;2022-12-26T20:56:16;5.05;;;2.90;;
35907;SDS011;22003;50.320;8.054;2022-12-26T20:58:41;9.02;;;2.75;;
35907;SDS011;22003;50.320;8.054;2022-12-26T21:01:08;9.13;;;2.70;;
35907;SDS011;22003;50.320;8.054;2022-12-26T21:03:36;7.38;;;2.30;;
35907;SDS011;22003;50.320;8.054;2022-12-26T21:08:42;9.95;;;2.65;;
35907;SDS011;22003;50.320;8.054;2022-12-26T21:11:10;5.95;;;2.50;;
35907;SDS011;22003;50.320;8.054;2022-12-26T21:13:41;6.03;;;2.28;;
35907;SDS011;22003;50.320;8.054;2022-12-26T21:16:12;12.55;;;2.40;;
35907;SDS011;22003;50.320;8.054;2022-12-26T21:18:38;5.80;;;2.35;;
35907;SDS011;22003;50.320;8.054;2022-12-26T21:21:07;9.75;;;2.53;;
35907;SDS011;22003;50.320;8.054;2022-12-26T21:23:38;6.88;;;2.30;;
35907;SDS011;22003;50.320;8.054;2022-12-26T21:26:03;4.95;;;2.45;;
35907;SDS011;22003;50.320;8.054;2022-12-26T21:28:29;9.40;;;3.10;;
35907;SDS011;22003;50.320;8.054;2022-12-26T21:30:55;7.22;;;2.55;;
35907;SDS011;22003;50.320;8.054;2022-12-26T21:33:20;13.85;;;3.20;;
35907;SDS011;22003;50.320;8.054;2022-12-26T21:35:46;7.88;;;3.45;;
35907;SDS011;22003;50.320;8.054;2022-12-26T21:38:15;6.80;;;2.97;;
35907;SDS011;22003;50.320;8.054;2022-12-26T21:40:41;11.73;;;2.60;;
35907;SDS011;22003;50.320;8.054;2022-12-26T21:43:07;5.25;;;2.85;;
35907;SDS011;22003;50.320;8.054;2022-12-26T21:45:33;12.23;;;3.03;;
35907;SDS011;22003;50.320;8.054;2022-12-26T21:47:58;8.27;;;3.05;;
35907;SDS011;22003;50.320;8.054;2022-12-26T21:50:23;9.63;;;3.40;;
35907;SDS011;22003;50.320;8.054;2022-12-26T21:52:49;8.02;;;3.10;;
35907;SDS011;22003;50.320;8.054;2022-12-26T21:55:14;7.40;;;3.80;;
35907;SDS011;22003;50.320;8.054;2022-12-26T21:57:52;7.83;;;3.00;;
35907;SDS011;22003;50.320;8.054;2022-12-26T22:00:18;8.30;;;3.28;;
35907;SDS011;22003;50.320;8.054;2022-12-26T22:02:44;7.75;;;3.10;;
35907;SDS011;22003;50.320;8.054;2022-12-26T22:05:29;10.98;;;3.00;;
35907;SDS011;22003;50.320;8.054;2022-12-26T22:07:59;8.00;;;2.90;;
35907;SDS011;22003;50.320;8.054;2022-12-26T22:10:26;8.85;;;2.72;;
35907;SDS011;22003;50.320;8.054;2022-12-26T22:13:12;7.03;;;3.47;;
35907;SDS011;22003;50.320;8.054;2022-12-26T22:15:44;8.43;;;2.92;;
35907;SDS011;22003;50.320;8.054;2022-12-26T22:18:31;10.10;;;2.90;;
35907;SDS011;22003;50.320;8.054;2022-12-26T22:21:06;9.15;;;2.33;;
35907;SDS011;22003;50.320;8.054;2022-12-26T22:23:34;7.78;;;2.78;;
35907;SDS011;22003;50.320;8.054;2022-12-26T22:26:00;8.40;;;3.03;;
35907;SDS011;22003;50.320;8.054;2022-12-26T22:28:26;7.90;;;2.30;;
35907;SDS011;22003;50.320;8.054;2022-12-26T22:30:53;14.00;;;4.22;;
35907;SDS011;22003;50.320;8.054;2022-12-26T22:33:19;10.20;;;4.22;;
35907;SDS011;22003;50.320;8.054;2022-12-26T22:35:44;10.80;;;5.07;;
35907;SDS011;22003;50.320;8.054;2022-12-26T22:38:10;9.85;;;3.70;;
35907;SDS011;22003;50.320;8.054;2022-12-26T22:40:35;16.13;;;4.53;;
35907;SDS011;22003;50.320;8.054;2022-12-26T22:43:00;11.98;;;4.55;;
35907;SDS011;22003;50.320;8.054;2022-12-26T22:45:26;15.05;;;5.55;;
35907;SDS011;22003;50.320;8.054;2022-12-26T22:47:51;9.00;;;4.03;;
35907;SDS011;22003;50.320;8.054;2022-12-26T22:50:16;11.82;;;4.45;;